Time;durP1;ratioP1;P1;durP2;ratioP2;P2;SDS_P1;SDS_P2;PMS_P1;PMS_P2;Temp;Humidity;BMP_temperature;BMP_pressure;BME280_temperature;BME280_humidity;BME280_pressure;Samples;Min_cycle;Max_cycle;Signal;HPM_P1;HPM_P2
2021/03/16 00:00:26;;;;;;;;;;;6.80;87.70;;;;;;5028429;28;19909;-58
2021/03/16 00:02:52;;;;;;;;;;;6.80;87.60;;;;;;5029540;28;19925;-57
2021/03/16 00:05:17;;;;;;;;;;;6.70;87.60;;;;;;5027752;28;19909;-57
2021/03/16 00:07:43;;;;;;;;;;;6.70;87.60;;;;;;5029750;28;20006;-58
2021/03/16 00:10:08;;;;;;;;;;;6.70;87.70;;;;;;5028790;28;19913;-59
2021/03/16 00:12:34;;;;;;;;;;;6.70;87.70;;;;;;5028220;28;20609;-58
2021/03/16 00:14:59;;;;;;;;;;;6.70;87.80;;;;;;5029690;28;19917;-58
2021/03/16 00:17:25;;;;;;;;;;;6.60;87.70;;;;;;5027460;28;19917;-57
2021/03/16 00:19:50;;;;;;;;;;;6.70;87.80;;;;;;5044109;28;20023;-56
2021/03/16 00:22:16;;;;;;;;;;;6.60;87.70;;;;;;5029908;28;19909;-58
2021/03/16 00:24:41;;;;;;;;;;;6.60;87.70;;;;;;5028789;28;19913;-58
2021/03/16 00:27:06;;;;;;;;;;;6.60;87.80;;;;;;5029384;28;19968;-57
2021/03/16 00:29:32;;;;;;;;;;;6.60;87.80;;;;;;5023806;28;19978;-57
2021/03/16 00:31:57;;;;;;;;;;;6.60;87.70;;;;;;5028088;28;19915;-57
2021/03/16 00:34:23;;;;;;;;;;;6.60;87.80;;;;;;5030608;28;19913;-57
2021/03/16 00:36:48;;;;;;;;;;;6.60;87.70;;;;;;5029868;28;20375;-59
2021/03/16 00:39:14;;;;;;;;;;;6.60;87.70;;;;;;5027505;28;19912;-58
2021/03/16 00:41:39;;;;;;;;;;;6.60;87.70;;;;;;5027576;28;19932;-59
2021/03/16 00:44:05;;;;;;;;;;;6.50;87.70;;;;;;5028090;28;20106;-58
2021/03/16 00:46:30;;;;;;;;;;;6.50;87.70;;;;;;5028259;28;19971;-57
2021/03/16 00:48:56;;;;;;;;;;;6.50;87.70;;;;;;5029235;28;19965;-58
2021/03/16 00:51:21;;;;;;;;;;;6.50;87.60;;;;;;5029748;28;19983;-59
2021/03/16 00:53:47;;;;;;;;;;;6.50;87.70;;;;;;5029533;28;19932;-58
2021/03/16 00:56:12;;;;;;;;;;;6.50;87.70;;;;;;5024191;28;19924;-57
2021/03/16 00:58:38;;;;;;;;;;;6.50;87.70;;;;;;5026249;28;19915;-58
2021/03/16 01:01:05;;;;;;;;;;;6.50;87.70;;;;;;5028228;28;19909;-58
2021/03/16 01:03:30;;;;;;;;;;;6.50;87.70;;;;;;5007074;28;19973;-57
2021/03/16 01:05:55;;;;;;;;;;;6.50;87.80;;;;;;5028248;28;19915;-58
2021/03/16 01:08:21;;;;;;;;;;;6.40;87.70;;;;;;5028843;28;19913;-57
2021/03/16 01:10:47;;;;;;;;;;;6.60;87.90;;;;;;5027878;28;20279;-58
2021/03/16 01:13:12;;;;;;;;;;;6.40;87.70;;;;;;5027441;28;19914;-56
2021/03/16 01:15:37;;;;;;;;;;;6.40;87.70;;;;;;5029244;28;20331;-58
2021/03/16 01:18:03;;;;;;;;;;;6.40;87.70;;;;;;5025061;28;19957;-57
2021/03/16 01:20:29;;;;;;;;;;;6.40;87.80;;;;;;5028991;28;19913;-58
2021/03/16 01:22:54;;;;;;;;;;;6.40;87.80;;;;;;5028327;28;19968;-56
2021/03/16 01:25:19;;;;;;;;;;;6.40;87.80;;;;;;5027149;28;20294;-58
2021/03/16 01:27:45;;;;;;;;;;;6.40;87.70;;;;;;5029041;28;19909;-57
2021/03/16 01:30:11;;;;;;;;;;;6.40;87.80;;;;;;5029327;28;19909;-59
2021/03/16 01:32:36;;;;;;;;;;;6.40;87.80;;;;;;5044591;28;19909;-57
2021/03/16 01:35:02;;;;;;;;;;;6.30;87.70;;;;;;5028072;28;19952;-57
2021/03/16 01:37:28;;;;;;;;;;;6.30;87.70;;;;;;5030363;28;19964;-58
2021/03/16 01:39:54;;;;;;;;;;;6.30;88.40;;;;;;5026009;28;20460;-57
2021/03/16 01:42:19;;;;;;;;;;;6.40;87.80;;;;;;5032163;28;19924;-58
2021/03/16 01:44:45;;;;;;;;;;;6.30;87.70;;;;;;5031193;28;20304;-57
2021/03/16 01:47:11;;;;;;;;;;;6.30;87.70;;;;;;5032012;28;19916;-58
2021/03/16 01:49:37;;;;;;;;;;;6.30;87.80;;;;;;5029500;28;19909;-57
2021/03/16 01:52:02;;;;;;;;;;;6.30;87.70;;;;;;5031887;28;20004;-57
2021/03/16 01:54:28;;;;;;;;;;;6.30;87.70;;;;;;5031365;28;20373;-57
2021/03/16 01:56:53;;;;;;;;;;;6.30;87.80;;;;;;5031848;28;19917;-58
2021/03/16 01:59:19;;;;;;;;;;;6.30;87.80;;;;;;5030793;28;19909;-57
2021/03/16 02:01:44;;;;;;;;;;;6.30;87.80;;;;;;5025985;28;19916;-58
2021/03/16 02:04:11;;;;;;;;;;;6.20;87.70;;;;;;5030312;28;19944;-57
2021/03/16 02:06:59;;;;;;;;;;;6.20;87.60;;;;;;5027328;28;19909;-57
2021/03/16 02:09:34;;;;;;;;;;;6.20;87.70;;;;;;5029004;28;20446;-58
2021/03/16 02:12:00;;;;;;;;;;;6.20;87.60;;;;;;5030355;28;20175;-58
2021/03/16 02:14:35;;;;;;;;;;;6.20;87.60;;;;;;5046209;28;20283;-57
2021/03/16 02:17:10;;;;;;;;;;;6.20;87.60;;;;;;5029221;28;19927;-58
2021/03/16 02:19:45;;;;;;;;;;;6.20;87.60;;;;;;5047269;28;19928;-57
2021/03/16 02:22:11;;;;;;;;;;;6.20;87.60;;;;;;5032106;28;20272;-57
2021/03/16 02:24:40;;;;;;;;;;;6.20;87.60;;;;;;5031702;28;19909;-58
2021/03/16 02:27:10;;;;;;;;;;;6.20;87.60;;;;;;5029363;28;19909;-58
2021/03/16 02:29:35;;;;;;;;;;;6.20;87.60;;;;;;5029001;28;20459;-56
2021/03/16 02:32:19;;;;;;;;;;;6.20;87.60;;;;;;5031690;28;20007;-58
2021/03/16 02:34:48;;;;;;;;;;;6.20;87.70;;;;;;5030226;28;20190;-58
2021/03/16 02:37:14;;;;;;;;;;;6.20;87.60;;;;;;5033568;28;19919;-57
2021/03/16 02:39:40;;;;;;;;;;;6.10;87.60;;;;;;5029516;28;19913;-59
2021/03/16 02:42:06;;;;;;;;;;;6.20;87.70;;;;;;5029264;28;19978;-58
2021/03/16 02:44:31;;;;;;;;;;;6.20;87.60;;;;;;5029908;28;20403;-59
2021/03/16 02:46:57;;;;;;;;;;;6.20;87.60;;;;;;5028074;28;19970;-59
2021/03/16 02:49:22;;;;;;;;;;;6.10;87.60;;;;;;5030675;28;19913;-59
2021/03/16 02:51:48;;;;;;;;;;;6.10;87.50;;;;;;5031167;28;19909;-58
2021/03/16 02:54:13;;;;;;;;;;;6.10;87.60;;;;;;5029556;28;19916;-58
2021/03/16 02:56:39;;;;;;;;;;;6.20;87.60;;;;;;5029993;28;19965;-58
2021/03/16 02:59:04;;;;;;;;;;;6.10;87.60;;;;;;5030774;28;19913;-58
2021/03/16 03:01:30;;;;;;;;;;;6.10;87.50;;;;;;5029630;28;20365;-58
2021/03/16 03:03:56;;;;;;;;;;;6.10;87.50;;;;;;5026732;28;19921;-57
2021/03/16 03:06:22;;;;;;;;;;;6.10;87.50;;;;;;5024475;28;20075;-58
2021/03/16 03:08:47;;;;;;;;;;;6.10;87.40;;;;;;5028862;28;20197;-59
2021/03/16 03:11:13;;;;;;;;;;;6.10;87.50;;;;;;5045213;28;19920;-59
2021/03/16 03:13:39;;;;;;;;;;;6.10;88.20;;;;;;5029960;28;20276;-57
2021/03/16 03:16:04;;;;;;;;;;;6.10;87.50;;;;;;5029123;28;19913;-57
2021/03/16 03:18:31;;;;;;;;;;;6.10;87.50;;;;;;5029372;28;19917;-57
2021/03/16 03:20:57;;;;;;;;;;;6.10;87.60;;;;;;5028702;28;20012;-59
2021/03/16 03:23:23;;;;;;;;;;;6.10;87.50;;;;;;5043550;28;19909;-57
2021/03/16 03:25:53;;;;;;;;;;;6.10;87.50;;;;;;5030277;28;19913;-57
2021/03/16 03:28:22;;;;;;;;;;;6.10;87.50;;;;;;5025578;28;19967;-58
2021/03/16 03:30:48;;;;;;;;;;;6.10;87.50;;;;;;5028291;28;19924;-58
2021/03/16 03:33:13;;;;;;;;;;;6.10;87.40;;;;;;5029872;28;19909;-58
2021/03/16 03:35:39;;;;;;;;;;;6.10;87.50;;;;;;5010880;28;20068;-58
2021/03/16 03:38:04;;;;;;;;;;;6.10;87.40;;;;;;5030927;28;19932;-59
2021/03/16 03:40:30;;;;;;;;;;;6.10;87.50;;;;;;5028705;28;20020;-56
2021/03/16 03:43:00;;;;;;;;;;;6.10;87.50;;;;;;5028755;28;19924;-60
2021/03/16 03:45:26;;;;;;;;;;;6.10;87.50;;;;;;5044150;28;19924;-57
2021/03/16 03:47:52;;;;;;;;;;;6.10;87.50;;;;;;5027445;28;19913;-58
2021/03/16 03:50:17;;;;;;;;;;;6.10;87.50;;;;;;5045562;28;20004;-59
2021/03/16 03:52:43;;;;;;;;;;;6.10;87.50;;;;;;5030173;28;19909;-57
2021/03/16 03:55:09;;;;;;;;;;;6.10;87.50;;;;;;5026648;28;20491;-58
2021/03/16 03:57:34;;;;;;;;;;;6.10;87.50;;;;;;5029947;28;20288;-56
2021/03/16 03:59:59;;;;;;;;;;;6.10;87.50;;;;;;5028190;28;19909;-59
2021/03/16 04:02:25;;;;;;;;;;;6.10;87.40;;;;;;5036875;28;19925;-57
2021/03/16 04:04:50;;;;;;;;;;;6.10;87.50;;;;;;5029331;28;19916;-57
2021/03/16 04:07:16;;;;;;;;;;;6.00;87.40;;;;;;5031057;28;19917;-57
2021/03/16 04:09:41;;;;;;;;;;;6.10;87.80;;;;;;5032730;28;20374;-59
2021/03/16 04:12:07;;;;;;;;;;;6.00;87.40;;;;;;5024961;28;19921;-57
2021/03/16 04:14:32;;;;;;;;;;;6.10;87.50;;;;;;5028369;28;19921;-57
2021/03/16 04:16:58;;;;;;;;;;;6.10;87.50;;;;;;5029822;28;19913;-58
2021/03/16 04:19:23;;;;;;;;;;;6.10;87.50;;;;;;5029873;28;19917;-58
2021/03/16 04:21:49;;;;;;;;;;;6.10;87.40;;;;;;5030062;28;20468;-59
2021/03/16 04:24:15;;;;;;;;;;;6.00;87.40;;;;;;5024840;28;19909;-56
2021/03/16 04:26:40;;;;;;;;;;;6.00;87.40;;;;;;5022982;28;20296;-57
2021/03/16 04:29:06;;;;;;;;;;;6.00;87.30;;;;;;5017866;28;19909;-57
2021/03/16 04:31:31;;;;;;;;;;;6.10;87.40;;;;;;5030001;28;19956;-56
2021/03/16 04:33:57;;;;;;;;;;;6.10;87.40;;;;;;5028499;28;20004;-57
2021/03/16 04:36:22;;;;;;;;;;;6.00;87.40;;;;;;5028854;28;19924;-57
2021/03/16 04:38:47;;;;;;;;;;;6.00;87.40;;;;;;5028313;28;19909;-57
2021/03/16 04:41:13;;;;;;;;;;;6.10;87.60;;;;;;5028145;28;20368;-58
2021/03/16 04:43:41;;;;;;;;;;;6.00;87.40;;;;;;5029731;28;19917;-57
2021/03/16 04:46:07;;;;;;;;;;;6.00;87.40;;;;;;5028872;28;20543;-59
2021/03/16 04:48:33;;;;;;;;;;;6.00;87.40;;;;;;5029190;28;19963;-59
2021/03/16 04:50:58;;;;;;;;;;;6.00;87.30;;;;;;5025794;28;20372;-57
2021/03/16 04:53:24;;;;;;;;;;;6.00;88.00;;;;;;5028141;28;19913;-58
2021/03/16 04:55:49;;;;;;;;;;;6.00;87.30;;;;;;5029158;28;20023;-59
2021/03/16 04:58:14;;;;;;;;;;;6.00;87.30;;;;;;5029499;28;19909;-57
2021/03/16 05:00:40;;;;;;;;;;;6.00;87.30;;;;;;5029454;28;20364;-58
2021/03/16 05:03:05;;;;;;;;;;;6.00;87.30;;;;;;5028683;28;19936;-58
2021/03/16 05:05:31;;;;;;;;;;;6.00;87.30;;;;;;5028341;28;20008;-58
2021/03/16 05:07:56;;;;;;;;;;;6.00;87.40;;;;;;5029269;28;20435;-58
2021/03/16 05:10:22;;;;;;;;;;;6.00;87.40;;;;;;5029270;28;19917;-59
2021/03/16 05:12:47;;;;;;;;;;;6.00;87.30;;;;;;5033058;28;19909;-58
2021/03/16 05:15:13;;;;;;;;;;;6.00;87.60;;;;;;5032718;28;20760;-58
2021/03/16 05:17:38;;;;;;;;;;;6.00;87.50;;;;;;5031784;28;19917;-58
2021/03/16 05:20:04;;;;;;;;;;;6.00;87.50;;;;;;5032415;28;19935;-58
2021/03/16 05:22:29;;;;;;;;;;;6.00;87.60;;;;;;5032959;28;20261;-58
2021/03/16 05:24:55;;;;;;;;;;;6.00;87.50;;;;;;5032936;28;20356;-58
2021/03/16 05:27:20;;;;;;;;;;;6.00;87.40;;;;;;5030215;28;19920;-57
2021/03/16 05:29:46;;;;;;;;;;;6.00;87.40;;;;;;5031883;28;20401;-57
2021/03/16 05:32:11;;;;;;;;;;;6.00;87.40;;;;;;5030734;28;19952;-58
2021/03/16 05:34:36;;;;;;;;;;;6.00;87.50;;;;;;5032512;28;19920;-57
2021/03/16 05:37:02;;;;;;;;;;;6.00;87.50;;;;;;5032874;28;19971;-56
2021/03/16 05:39:27;;;;;;;;;;;6.00;87.50;;;;;;5032743;28;20423;-57
2021/03/16 05:41:53;;;;;;;;;;;6.00;87.60;;;;;;5031609;28;19916;-59
2021/03/16 05:44:18;;;;;;;;;;;5.90;88.10;;;;;;5029824;28;19921;-58
2021/03/16 05:46:44;;;;;;;;;;;5.90;87.50;;;;;;5030312;28;20276;-57
2021/03/16 05:49:09;;;;;;;;;;;5.90;87.60;;;;;;5033684;28;20369;-56
2021/03/16 05:51:35;;;;;;;;;;;5.90;87.60;;;;;;5032753;28;19913;-57
2021/03/16 05:54:00;;;;;;;;;;;5.90;87.60;;;;;;5033651;28;20004;-57
2021/03/16 05:56:26;;;;;;;;;;;5.90;87.70;;;;;;5030614;28;19935;-57
2021/03/16 05:58:52;;;;;;;;;;;5.90;87.70;;;;;;5032223;28;19913;-58
2021/03/16 06:01:17;;;;;;;;;;;5.80;87.70;;;;;;5032253;28;19924;-60
2021/03/16 06:03:45;;;;;;;;;;;5.80;87.80;;;;;;5026825;28;19929;-57
2021/03/16 06:06:11;;;;;;;;;;;5.90;87.80;;;;;;5038182;28;19977;-57
2021/03/16 06:08:37;;;;;;;;;;;5.80;88.40;;;;;;5026343;28;19956;-58
2021/03/16 06:11:03;;;;;;;;;;;5.80;87.80;;;;;;5028549;28;19978;-58
2021/03/16 06:13:29;;;;;;;;;;;5.90;87.90;;;;;;5032159;28;19932;-57
2021/03/16 06:15:55;;;;;;;;;;;5.90;87.90;;;;;;5029473;28;20364;-56
2021/03/16 06:18:24;;;;;;;;;;;5.80;88.00;;;;;;5037585;28;19909;-58
2021/03/16 06:20:59;;;;;;;;;;;5.80;87.90;;;;;;5047168;28;19909;-58
2021/03/16 06:23:31;;;;;;;;;;;5.80;88.10;;;;;;5036468;28;19909;-58
2021/03/16 06:25:57;;;;;;;;;;;5.80;88.00;;;;;;5030948;28;20003;-58
2021/03/16 06:28:28;;;;;;;;;;;5.80;87.90;;;;;;5032123;28;20020;-58
2021/03/16 06:30:54;;;;;;;;;;;5.80;88.00;;;;;;5046388;28;19921;-57
2021/03/16 06:33:20;;;;;;;;;;;5.80;88.00;;;;;;5031484;28;20375;-59
2021/03/16 06:35:58;;;;;;;;;;;5.80;88.00;;;;;;5029018;28;19909;-57
2021/03/16 06:38:24;;;;;;;;;;;5.80;88.10;;;;;;5030550;28;20011;-57
2021/03/16 06:40:49;;;;;;;;;;;5.80;88.00;;;;;;5030114;28;20019;-58
2021/03/16 06:43:15;;;;;;;;;;;5.80;88.10;;;;;;5030321;28;19909;-57
2021/03/16 06:45:40;;;;;;;;;;;5.80;88.10;;;;;;5027901;28;19920;-58
2021/03/16 06:48:32;;;;;;;;;;;5.80;88.10;;;;;;5029153;28;20125;-58
2021/03/16 06:51:06;;;;;;;;;;;5.80;88.20;;;;;;5028662;28;19909;-59
2021/03/16 06:53:32;;;;;;;;;;;5.80;88.20;;;;;;5031621;28;19916;-58
2021/03/16 06:55:57;;;;;;;;;;;5.80;88.10;;;;;;5030477;28;19909;-58
2021/03/16 06:58:27;;;;;;;;;;;5.90;88.00;;;;;;5046815;28;19979;-57
2021/03/16 07:01:24;;;;;;;;;;;5.90;87.90;;;;;;5030189;28;19979;-57
2021/03/16 07:03:50;;;;;;;;;;;5.90;88.00;;;;;;5020713;28;20388;-57
2021/03/16 07:06:18;;;;;;;;;;;5.80;87.90;;;;;;5031193;28;19915;-58
2021/03/16 07:08:44;;;;;;;;;;;5.90;87.90;;;;;;5034834;28;20444;-57
2021/03/16 07:11:14;;;;;;;;;;;5.90;87.90;;;;;;5031827;28;20011;-58
2021/03/16 07:13:39;;;;;;;;;;;5.90;87.90;;;;;;5029041;28;20334;-56
2021/03/16 07:16:05;;;;;;;;;;;5.90;87.90;;;;;;5045768;28;19928;-58
2021/03/16 07:18:32;;;;;;;;;;;5.90;87.90;;;;;;5023776;28;19957;-58
2021/03/16 07:20:58;;;;;;;;;;;5.90;87.90;;;;;;5046233;28;19909;-57
2021/03/16 07:23:24;;;;;;;;;;;5.90;87.90;;;;;;5034121;28;19917;-58
2021/03/16 07:25:50;;;;;;;;;;;5.90;87.90;;;;;;5030130;28;20012;-58
2021/03/16 07:28:15;;;;;;;;;;;6.00;87.90;;;;;;5033732;28;19917;-57
2021/03/16 07:30:41;;;;;;;;;;;6.00;87.90;;;;;;5030179;28;19909;-57
2021/03/16 07:33:06;;;;;;;;;;;5.90;87.80;;;;;;5017524;28;19909;-58
2021/03/16 07:35:33;;;;;;;;;;;6.00;87.80;;;;;;5025336;28;19960;-59
2021/03/16 07:37:59;;;;;;;;;;;5.90;87.60;;;;;;5028014;28;20423;-57
2021/03/16 07:40:25;;;;;;;;;;;6.00;87.70;;;;;;5025375;28;19917;-57
2021/03/16 07:42:50;;;;;;;;;;;6.00;87.60;;;;;;5027250;28;19913;-59
2021/03/16 07:45:22;;;;;;;;;;;6.00;87.60;;;;;;5025933;28;19917;-58
2021/03/16 07:47:48;;;;;;;;;;;6.00;87.50;;;;;;5030554;28;19944;-57
2021/03/16 07:50:13;;;;;;;;;;;6.00;87.50;;;;;;5025791;28;19956;-60
2021/03/16 07:52:45;;;;;;;;;;;6.00;87.40;;;;;;5025755;28;19921;-59
2021/03/16 07:55:11;;;;;;;;;;;6.10;87.50;;;;;;5027224;28;19913;-57
2021/03/16 07:57:37;;;;;;;;;;;6.00;87.90;;;;;;5027868;28;19913;-58
2021/03/16 08:00:06;;;;;;;;;;;6.10;87.30;;;;;;5026854;28;19971;-60
2021/03/16 08:02:32;;;;;;;;;;;6.00;87.20;;;;;;5028671;28;19917;-57
2021/03/16 08:04:57;;;;;;;;;;;6.10;87.20;;;;;;5027870;28;19967;-58
2021/03/16 08:07:23;;;;;;;;;;;6.10;87.20;;;;;;5040890;28;19923;-59
2021/03/16 08:09:52;;;;;;;;;;;6.10;87.10;;;;;;5024465;28;20326;-58
2021/03/16 08:12:19;;;;;;;;;;;6.10;87.00;;;;;;5022022;28;19921;-56
2021/03/16 08:14:44;;;;;;;;;;;6.10;87.20;;;;;;5022654;28;19932;-58
2021/03/16 08:17:10;;;;;;;;;;;6.10;87.10;;;;;;5040043;28;19925;-58
2021/03/16 08:19:36;;;;;;;;;;;6.10;87.20;;;;;;5023895;28;19952;-59
2021/03/16 08:22:01;;;;;;;;;;;6.20;87.20;;;;;;5004901;28;19918;-58
2021/03/16 08:24:37;;;;;;;;;;;6.20;87.20;;;;;;5018611;28;19983;-58
2021/03/16 08:27:02;;;;;;;;;;;6.20;87.10;;;;;;5038050;28;20142;-58
2021/03/16 08:29:28;;;;;;;;;;;6.20;87.20;;;;;;5028166;28;19910;-57
2021/03/16 08:31:54;;;;;;;;;;;6.20;87.20;;;;;;5024729;28;19919;-59
2021/03/16 08:34:23;;;;;;;;;;;6.10;87.10;;;;;;5041399;28;20012;-59
2021/03/16 08:36:48;;;;;;;;;;;6.20;87.20;;;;;;5026105;28;19956;-58
2021/03/16 08:39:20;;;;;;;;;;;6.20;87.10;;;;;;5027272;28;19971;-58
2021/03/16 08:41:52;;;;;;;;;;;6.20;87.10;;;;;;5027922;28;19916;-57
2021/03/16 08:44:18;;;;;;;;;;;6.20;87.10;;;;;;5041624;28;20324;-58
2021/03/16 08:46:44;;;;;;;;;;;6.20;87.00;;;;;;5023577;28;19967;-59
2021/03/16 08:49:14;;;;;;;;;;;6.20;87.00;;;;;;5032087;28;20057;-57
2021/03/16 08:51:39;;;;;;;;;;;6.20;87.00;;;;;;5049194;28;20004;-58
2021/03/16 08:54:05;;;;;;;;;;;6.20;87.10;;;;;;5032201;28;19963;-59
2021/03/16 08:56:30;;;;;;;;;;;6.20;87.10;;;;;;5033092;28;19922;-57
2021/03/16 08:58:56;;;;;;;;;;;6.30;87.00;;;;;;5032572;28;20361;-59
2021/03/16 09:01:28;;;;;;;;;;;6.30;87.00;;;;;;5046241;28;20035;-58
2021/03/16 09:03:53;;;;;;;;;;;6.30;87.00;;;;;;5032254;28;19921;-58
2021/03/16 09:06:19;;;;;;;;;;;6.30;87.00;;;;;;5033224;28;19910;-57
2021/03/16 09:08:48;;;;;;;;;;;6.30;87.00;;;;;;5029009;28;19921;-59
2021/03/16 09:11:25;;;;;;;;;;;6.30;86.90;;;;;;5026176;28;20047;-58
2021/03/16 09:13:51;;;;;;;;;;;6.30;86.90;;;;;;5030061;28;19914;-57
2021/03/16 09:16:21;;;;;;;;;;;6.30;86.80;;;;;;5032198;28;19917;-58
2021/03/16 09:18:47;;;;;;;;;;;6.30;86.90;;;;;;5021367;28;20250;-58
2021/03/16 09:21:12;;;;;;;;;;;6.30;86.90;;;;;;5030899;28;19917;-57
2021/03/16 09:23:38;;;;;;;;;;;6.30;86.80;;;;;;5042932;28;19913;-58
2021/03/16 09:26:03;;;;;;;;;;;6.40;86.60;;;;;;5029415;28;19918;-59
2021/03/16 09:28:29;;;;;;;;;;;6.40;86.70;;;;;;5024858;28;19944;-58
2021/03/16 09:30:54;;;;;;;;;;;6.40;86.70;;;;;;5028220;28;19920;-59
2021/03/16 09:33:23;;;;;;;;;;;6.40;86.60;;;;;;5031839;28;19909;-59
2021/03/16 09:35:55;;;;;;;;;;;6.40;86.60;;;;;;5027336;28;19919;-58
2021/03/16 09:38:21;;;;;;;;;;;6.40;86.60;;;;;;5026912;28;19920;-57
2021/03/16 09:40:46;;;;;;;;;;;6.50;86.60;;;;;;5029138;28;19913;-58
2021/03/16 09:43:19;;;;;;;;;;;6.50;86.60;;;;;;5031206;28;19963;-57
2021/03/16 09:45:51;;;;;;;;;;;6.50;86.50;;;;;;5031437;28;19909;-58
2021/03/16 09:48:17;;;;;;;;;;;6.50;86.40;;;;;;5036211;28;19913;-57
2021/03/16 09:50:44;;;;;;;;;;;6.50;86.30;;;;;;5030223;28;19921;-59
2021/03/16 09:53:11;;;;;;;;;;;6.50;86.30;;;;;;5030576;28;19919;-60
2021/03/16 09:55:36;;;;;;;;;;;6.60;86.30;;;;;;5029940;28;19913;-58
2021/03/16 09:58:02;;;;;;;;;;;6.60;86.30;;;;;;5024565;28;19998;-59
2021/03/16 10:00:27;;;;;;;;;;;6.60;86.30;;;;;;5027862;28;19921;-59
2021/03/16 10:03:03;;;;;;;;;;;6.60;86.30;;;;;;5031230;28;19929;-58
2021/03/16 10:05:28;;;;;;;;;;;6.60;86.30;;;;;;5033789;28;19917;-59
2021/03/16 10:07:54;;;;;;;;;;;6.60;86.20;;;;;;5031444;28;20298;-59
2021/03/16 10:10:20;;;;;;;;;;;6.60;86.10;;;;;;5032006;28;19909;-58
2021/03/16 10:12:52;;;;;;;;;;;6.70;86.10;;;;;;5046736;28;19913;-58
2021/03/16 10:15:22;;;;;;;;;;;6.70;86.10;;;;;;5031708;28;19913;-59
2021/03/16 10:17:47;;;;;;;;;;;6.70;86.30;;;;;;5045390;28;19917;-60
2021/03/16 10:20:14;;;;;;;;;;;6.70;86.20;;;;;;5031063;28;19921;-57
2021/03/16 10:22:40;;;;;;;;;;;6.80;86.10;;;;;;5031976;28;19956;-58
2021/03/16 10:25:08;;;;;;;;;;;6.80;86.00;;;;;;5031729;28;19956;-59
2021/03/16 10:27:33;;;;;;;;;;;6.80;85.90;;;;;;5046760;28;20091;-59
2021/03/16 10:30:07;;;;;;;;;;;6.80;85.80;;;;;;5013199;28;19913;-59
2021/03/16 10:32:33;;;;;;;;;;;6.90;85.80;;;;;;5025836;28;19924;-60
2021/03/16 10:34:58;;;;;;;;;;;6.90;85.90;;;;;;5031236;28;19917;-59
2021/03/16 10:37:24;;;;;;;;;;;6.90;85.80;;;;;;5046241;28;19917;-59
2021/03/16 10:39:50;;;;;;;;;;;7.00;85.50;;;;;;5024505;28;19939;-59
2021/03/16 10:42:16;;;;;;;;;;;7.00;85.40;;;;;;5030484;28;19952;-59
2021/03/16 10:44:41;;;;;;;;;;;7.00;85.30;;;;;;5026735;28;19913;-57
2021/03/16 10:47:06;;;;;;;;;;;7.10;85.40;;;;;;5028310;28;20004;-59
2021/03/16 10:49:32;;;;;;;;;;;7.10;85.30;;;;;;5031429;28;19914;-58
2021/03/16 10:51:58;;;;;;;;;;;7.10;85.30;;;;;;5028820;28;19917;-59
2021/03/16 10:54:24;;;;;;;;;;;7.20;85.20;;;;;;5030799;28;20273;-56
2021/03/16 10:56:51;;;;;;;;;;;7.20;85.20;;;;;;5029589;28;19936;-59
2021/03/16 10:59:16;;;;;;;;;;;7.20;85.10;;;;;;5030279;28;19909;-60
2021/03/16 11:01:42;;;;;;;;;;;7.20;85.00;;;;;;5030529;28;19909;-57
2021/03/16 11:04:07;;;;;;;;;;;7.20;85.10;;;;;;5030554;28;19929;-58
2021/03/16 11:06:33;;;;;;;;;;;7.30;85.00;;;;;;5030742;28;19975;-58
2021/03/16 11:08:58;;;;;;;;;;;7.30;84.90;;;;;;5025688;28;20675;-59
2021/03/16 11:11:24;;;;;;;;;;;7.30;84.70;;;;;;5029346;28;19920;-58
2021/03/16 11:13:49;;;;;;;;;;;7.40;84.80;;;;;;5028671;28;20250;-58
2021/03/16 11:16:14;;;;;;;;;;;7.40;84.60;;;;;;5030266;28;19928;-58
2021/03/16 11:18:40;;;;;;;;;;;7.40;84.60;;;;;;5025424;28;19921;-59
2021/03/16 11:21:05;;;;;;;;;;;7.50;84.50;;;;;;5029738;28;19913;-58
2021/03/16 11:23:31;;;;;;;;;;;7.50;84.40;;;;;;5028771;28;19913;-59
2021/03/16 11:25:56;;;;;;;;;;;7.50;84.40;;;;;;5027705;28;19913;-59
2021/03/16 11:28:22;;;;;;;;;;;7.60;84.30;;;;;;5029514;28;19917;-59
2021/03/16 11:30:47;;;;;;;;;;;7.60;84.10;;;;;;5033377;28;20009;-58
2021/03/16 11:33:13;;;;;;;;;;;7.60;84.00;;;;;;5026460;28;20372;-59
2021/03/16 11:35:38;;;;;;;;;;;7.70;84.00;;;;;;5023089;28;19921;-57
2021/03/16 11:38:03;;;;;;;;;;;7.70;84.00;;;;;;5027985;28;19925;-57
2021/03/16 11:40:29;;;;;;;;;;;7.70;83.90;;;;;;5027929;28;20551;-58
2021/03/16 11:42:54;;;;;;;;;;;7.70;83.80;;;;;;5025639;28;19920;-57
2021/03/16 11:45:20;;;;;;;;;;;7.70;83.80;;;;;;5023562;28;20031;-58
2021/03/16 11:47:45;;;;;;;;;;;7.70;83.80;;;;;;5025422;28;19914;-57
2021/03/16 11:50:11;;;;;;;;;;;7.80;83.70;;;;;;5024168;28;19925;-58
2021/03/16 11:52:36;;;;;;;;;;;7.80;83.70;;;;;;5026248;28;20398;-59
2021/03/16 11:55:04;;;;;;;;;;;7.80;83.50;;;;;;5027428;28;20327;-58
2021/03/16 11:57:29;;;;;;;;;;;7.90;83.50;;;;;;5028635;28;20382;-60
2021/03/16 11:59:55;;;;;;;;;;;7.90;83.30;;;;;;5022272;28;19917;-57
2021/03/16 12:02:20;;;;;;;;;;;8.00;83.20;;;;;;5040217;28;20412;-58
2021/03/16 12:04:46;;;;;;;;;;;8.00;83.10;;;;;;5028170;28;19917;-58
2021/03/16 12:07:11;;;;;;;;;;;8.00;83.00;;;;;;5026079;28;19917;-58
2021/03/16 12:09:37;;;;;;;;;;;8.10;83.00;;;;;;5007516;28;19921;-57
2021/03/16 12:12:02;;;;;;;;;;;8.10;82.80;;;;;;4985161;28;20416;-59
2021/03/16 12:14:28;;;;;;;;;;;8.20;82.70;;;;;;4985939;28;19937;-59
2021/03/16 12:16:53;;;;;;;;;;;8.20;82.50;;;;;;4987063;28;20408;-59
2021/03/16 12:19:18;;;;;;;;;;;8.20;82.40;;;;;;4985837;28;19914;-58
2021/03/16 12:21:44;;;;;;;;;;;8.30;82.30;;;;;;4988245;28;19964;-58
2021/03/16 12:24:10;;;;;;;;;;;8.30;82.20;;;;;;4989445;28;20000;-58
2021/03/16 12:26:36;;;;;;;;;;;8.30;82.10;;;;;;4988658;28;20012;-58
2021/03/16 12:29:02;;;;;;;;;;;8.40;82.10;;;;;;4987485;28;20008;-58
2021/03/16 12:31:28;;;;;;;;;;;8.40;82.00;;;;;;4982622;28;20341;-57
2021/03/16 12:33:53;;;;;;;;;;;8.50;82.00;;;;;;4983545;28;19921;-59
2021/03/16 12:36:19;;;;;;;;;;;8.50;81.90;;;;;;4989299;28;19957;-57
2021/03/16 12:38:44;;;;;;;;;;;8.50;81.80;;;;;;4979878;28;19914;-60
2021/03/16 12:41:10;;;;;;;;;;;8.60;81.70;;;;;;4975982;28;20229;-58
2021/03/16 12:43:35;;;;;;;;;;;8.60;81.50;;;;;;4986792;28;19925;-58
2021/03/16 12:46:00;;;;;;;;;;;8.60;81.50;;;;;;5000297;28;20407;-58
2021/03/16 12:48:26;;;;;;;;;;;8.60;81.40;;;;;;4982340;28;21118;-59
2021/03/16 12:50:51;;;;;;;;;;;8.60;81.40;;;;;;4986020;28;19968;-60
2021/03/16 12:53:17;;;;;;;;;;;8.70;81.40;;;;;;4982178;28;19921;-60
2021/03/16 12:55:43;;;;;;;;;;;8.60;81.30;;;;;;4985699;28;19976;-59
2021/03/16 12:58:09;;;;;;;;;;;8.70;81.30;;;;;;4984545;28;21309;-58
2021/03/16 13:00:34;;;;;;;;;;;8.70;81.40;;;;;;4987306;28;19917;-57
2021/03/16 13:03:00;;;;;;;;;;;8.70;81.60;;;;;;4989462;28;19926;-58
2021/03/16 13:05:25;;;;;;;;;;;8.60;81.50;;;;;;4988458;28;19914;-59
2021/03/16 13:07:50;;;;;;;;;;;8.70;81.70;;;;;;4983774;28;19914;-60
2021/03/16 13:10:16;;;;;;;;;;;8.60;81.60;;;;;;4985265;28;19918;-58
2021/03/16 13:12:41;;;;;;;;;;;8.70;81.80;;;;;;4984373;28;19920;-58
2021/03/16 13:15:09;;;;;;;;;;;8.70;81.40;;;;;;4982476;28;19922;-58
2021/03/16 13:17:35;;;;;;;;;;;8.70;81.30;;;;;;5003166;28;19922;-58
2021/03/16 13:20:00;;;;;;;;;;;8.70;81.20;;;;;;5001394;28;20428;-59
2021/03/16 13:22:26;;;;;;;;;;;8.80;81.30;;;;;;4988063;28;19925;-59
2021/03/16 13:24:51;;;;;;;;;;;8.80;81.40;;;;;;4984970;28;19918;-58
2021/03/16 13:27:17;;;;;;;;;;;8.80;81.30;;;;;;4986119;28;20396;-59
2021/03/16 13:29:42;;;;;;;;;;;8.90;81.40;;;;;;4983023;28;19922;-58
2021/03/16 13:32:08;;;;;;;;;;;8.90;81.30;;;;;;4987249;28;19924;-58
2021/03/16 13:34:39;;;;;;;;;;;8.90;81.20;;;;;;4989918;28;20048;-58
2021/03/16 13:37:04;;;;;;;;;;;8.90;81.00;;;;;;5005151;28;20360;-58
2021/03/16 13:39:30;;;;;;;;;;;9.00;81.10;;;;;;4986917;28;20009;-60
2021/03/16 13:41:55;;;;;;;;;;;9.00;81.10;;;;;;4987274;28;19968;-59
2021/03/16 13:44:21;;;;;;;;;;;9.00;80.80;;;;;;4985507;28;19922;-59
2021/03/16 13:46:46;;;;;;;;;;;9.00;80.90;;;;;;4986790;28;19967;-58
2021/03/16 13:49:12;;;;;;;;;;;9.00;80.80;;;;;;4987959;28;19920;-56
2021/03/16 13:51:37;;;;;;;;;;;9.00;80.50;;;;;;4986989;28;20409;-57
2021/03/16 13:54:02;;;;;;;;;;;9.00;80.20;;;;;;5003299;28;19922;-59
2021/03/16 13:56:28;;;;;;;;;;;9.10;80.30;;;;;;5006305;28;20471;-58
2021/03/16 13:58:53;;;;;;;;;;;9.10;79.90;;;;;;4987109;28;19922;-59
2021/03/16 14:01:19;;;;;;;;;;;9.10;79.80;;;;;;4989813;28;20005;-56
2021/03/16 14:03:44;;;;;;;;;;;9.10;79.70;;;;;;4989112;28;20312;-58
2021/03/16 14:06:10;;;;;;;;;;;9.10;79.50;;;;;;4986587;28;19918;-59
2021/03/16 14:08:35;;;;;;;;;;;9.10;79.40;;;;;;4985075;28;19914;-57
2021/03/16 14:11:01;;;;;;;;;;;9.10;79.40;;;;;;4985649;28;19921;-56
2021/03/16 14:13:26;;;;;;;;;;;9.10;79.50;;;;;;4989821;28;20032;-58
2021/03/16 14:15:52;;;;;;;;;;;9.20;79.50;;;;;;4988256;28;19917;-58
2021/03/16 14:18:17;;;;;;;;;;;9.20;79.60;;;;;;4989607;28;19918;-56
2021/03/16 14:20:43;;;;;;;;;;;9.20;79.60;;;;;;4989637;28;20347;-56
2021/03/16 14:23:08;;;;;;;;;;;9.20;79.40;;;;;;4991948;28;19914;-56
2021/03/16 14:25:34;;;;;;;;;;;9.20;79.40;;;;;;4989708;28;19937;-57